sensor_id;sensor_type;location;lat;lon;timestamp;P1;durP1;ratioP1;P2;durP2;ratioP2
16177;SDS011;8195;51.220;9.746;2023-05-07T00:06:45;31.40;;;28.00;;
16177;SDS011;8195;51.220;9.746;2023-05-07T00:17:06;36.57;;;31.43;;
16177;SDS011;8195;51.220;9.746;2023-05-07T00:27:27;37.30;;;32.63;;
16177;SDS011;8195;51.220;9.746;2023-05-07T00:37:48;39.07;;;32.30;;
16177;SDS011;8195;51.220;9.746;2023-05-07T00:48:09;34.97;;;31.17;;
16177;SDS011;8195;51.220;9.746;2023-05-07T00:58:30;33.13;;;28.67;;
16177;SDS011;8195;51.220;9.746;2023-05-07T01:08:51;32.70;;;28.17;;
16177;SDS011;8195;51.220;9.746;2023-05-07T01:19:12;30.37;;;26.27;;
16177;SDS011;8195;51.220;9.746;2023-05-07T01:29:37;35.87;;;31.07;;
16177;SDS011;8195;51.220;9.746;2023-05-07T01:39:58;37.37;;;33.13;;
16177;SDS011;8195;51.220;9.746;2023-05-07T01:50:21;35.10;;;30.07;;
16177;SDS011;8195;51.220;9.746;2023-05-07T02:00:42;35.70;;;29.87;;
16177;SDS011;8195;51.220;9.746;2023-05-07T02:11:03;37.03;;;29.90;;
16177;SDS011;8195;51.220;9.746;2023-05-07T02:21:24;41.47;;;33.60;;
16177;SDS011;8195;51.220;9.746;2023-05-07T02:31:45;40.40;;;33.23;;
16177;SDS011;8195;51.220;9.746;2023-05-07T02:42:06;39.53;;;33.13;;
16177;SDS011;8195;51.220;9.746;2023-05-07T02:52:27;38.73;;;32.43;;
16177;SDS011;8195;51.220;9.746;2023-05-07T03:02:48;39.40;;;32.63;;
16177;SDS011;8195;51.220;9.746;2023-05-07T03:13:08;37.60;;;30.40;;
16177;SDS011;8195;51.220;9.746;2023-05-07T03:23:38;35.90;;;28.77;;
16177;SDS011;8195;51.220;9.746;2023-05-07T03:34:00;37.93;;;30.50;;
16177;SDS011;8195;51.220;9.746;2023-05-07T03:44:26;37.93;;;31.10;;
16177;SDS011;8195;51.220;9.746;2023-05-07T03:54:56;41.80;;;32.37;;
16177;SDS011;8195;51.220;9.746;2023-05-07T04:05:17;39.07;;;30.80;;
16177;SDS011;8195;51.220;9.746;2023-05-07T04:15:38;39.53;;;30.97;;
16177;SDS011;8195;51.220;9.746;2023-05-07T04:25:59;39.83;;;32.27;;
16177;SDS011;8195;51.220;9.746;2023-05-07T04:36:20;34.10;;;29.13;;
16177;SDS011;8195;51.220;9.746;2023-05-07T04:47:01;30.50;;;26.33;;
16177;SDS011;8195;51.220;9.746;2023-05-07T04:57:29;29.43;;;23.37;;
16177;SDS011;8195;51.220;9.746;2023-05-07T05:07:50;28.47;;;23.33;;
16177;SDS011;8195;51.220;9.746;2023-05-07T05:18:11;25.73;;;21.53;;
16177;SDS011;8195;51.220;9.746;2023-05-07T05:28:37;24.17;;;20.00;;
16177;SDS011;8195;51.220;9.746;2023-05-07T05:49:32;21.53;;;18.30;;
16177;SDS011;8195;51.220;9.746;2023-05-07T05:59:53;20.63;;;16.63;;
16177;SDS011;8195;51.220;9.746;2023-05-07T06:10:20;21.17;;;17.17;;
16177;SDS011;8195;51.220;9.746;2023-05-07T06:20:41;20.13;;;16.10;;
16177;SDS011;8195;51.220;9.746;2023-05-07T06:31:12;15.40;;;13.53;;
16177;SDS011;8195;51.220;9.746;2023-05-07T06:41:40;16.70;;;14.80;;
16177;SDS011;8195;51.220;9.746;2023-05-07T06:52:01;16.83;;;15.00;;
16177;SDS011;8195;51.220;9.746;2023-05-07T07:02:22;21.17;;;17.67;;
16177;SDS011;8195;51.220;9.746;2023-05-07T07:12:43;20.73;;;16.83;;
16177;SDS011;8195;51.220;9.746;2023-05-07T07:23:03;18.37;;;15.87;;
16177;SDS011;8195;51.220;9.746;2023-05-07T07:33:27;21.03;;;17.27;;
16177;SDS011;8195;51.220;9.746;2023-05-07T07:43:51;21.97;;;18.70;;
16177;SDS011;8195;51.220;9.746;2023-05-07T07:54:12;18.93;;;15.63;;
16177;SDS011;8195;51.220;9.746;2023-05-07T08:04:36;17.03;;;15.23;;
16177;SDS011;8195;51.220;9.746;2023-05-07T08:14:57;14.67;;;13.13;;
16177;SDS011;8195;51.220;9.746;2023-05-07T08:25:27;14.00;;;12.57;;
16177;SDS011;8195;51.220;9.746;2023-05-07T08:35:48;13.00;;;11.33;;
16177;SDS011;8195;51.220;9.746;2023-05-07T08:46:09;12.50;;;11.20;;
16177;SDS011;8195;51.220;9.746;2023-05-07T08:56:36;9.40;;;8.60;;
16177;SDS011;8195;51.220;9.746;2023-05-07T09:07:03;9.53;;;8.70;;
16177;SDS011;8195;51.220;9.746;2023-05-07T09:17:50;10.10;;;9.20;;
16177;SDS011;8195;51.220;9.746;2023-05-07T09:28:20;9.53;;;8.63;;
16177;SDS011;8195;51.220;9.746;2023-05-07T09:38:49;9.13;;;8.33;;
16177;SDS011;8195;51.220;9.746;2023-05-07T09:49:21;9.80;;;8.90;;
16177;SDS011;8195;51.220;9.746;2023-05-07T09:59:47;11.13;;;10.13;;
16177;SDS011;8195;51.220;9.746;2023-05-07T10:10:39;10.10;;;9.10;;
16177;SDS011;8195;51.220;9.746;2023-05-07T10:21:06;10.03;;;9.13;;
16177;SDS011;8195;51.220;9.746;2023-05-07T10:53:26;11.83;;;10.77;;
16177;SDS011;8195;51.220;9.746;2023-05-07T11:14:45;8.50;;;7.80;;
16177;SDS011;8195;51.220;9.746;2023-05-07T11:25:56;9.67;;;8.87;;
16177;SDS011;8195;51.220;9.746;2023-05-07T11:36:31;11.53;;;10.53;;
16177;SDS011;8195;51.220;9.746;2023-05-07T11:46:56;13.77;;;12.53;;
16177;SDS011;8195;51.220;9.746;2023-05-07T11:57:24;14.47;;;13.07;;
16177;SDS011;8195;51.220;9.746;2023-05-07T12:07:45;13.57;;;12.37;;
16177;SDS011;8195;51.220;9.746;2023-05-07T12:28:31;12.13;;;11.10;;
16177;SDS011;8195;51.220;9.746;2023-05-07T12:38:57;11.37;;;10.43;;
16177;SDS011;8195;51.220;9.746;2023-05-07T12:49:20;12.50;;;11.40;;
16177;SDS011;8195;51.220;9.746;2023-05-07T12:59:41;13.17;;;11.97;;
16177;SDS011;8195;51.220;9.746;2023-05-07T13:10:03;13.40;;;12.20;;
16177;SDS011;8195;51.220;9.746;2023-05-07T13:20:24;14.83;;;13.53;;
16177;SDS011;8195;51.220;9.746;2023-05-07T13:30:46;15.37;;;14.07;;
16177;SDS011;8195;51.220;9.746;2023-05-07T13:41:07;14.60;;;13.30;;
16177;SDS011;8195;51.220;9.746;2023-05-07T13:51:28;16.53;;;14.93;;
16177;SDS011;8195;51.220;9.746;2023-05-07T14:01:49;15.57;;;14.27;;
16177;SDS011;8195;51.220;9.746;2023-05-07T14:12:09;15.87;;;14.43;;
16177;SDS011;8195;51.220;9.746;2023-05-07T14:22:30;16.33;;;14.83;;
16177;SDS011;8195;51.220;9.746;2023-05-07T14:32:51;14.80;;;13.50;;
16177;SDS011;8195;51.220;9.746;2023-05-07T14:43:22;16.83;;;15.23;;
16177;SDS011;8195;51.220;9.746;2023-05-07T14:53:46;17.93;;;16.33;;
16177;SDS011;8195;51.220;9.746;2023-05-07T15:04:16;19.30;;;17.40;;
16177;SDS011;8195;51.220;9.746;2023-05-07T15:25:19;16.17;;;14.77;;
16177;SDS011;8195;51.220;9.746;2023-05-07T15:35:51;17.47;;;15.90;;
16177;SDS011;8195;51.220;9.746;2023-05-07T15:46:24;17.20;;;15.77;;
16177;SDS011;8195;51.220;9.746;2023-05-07T15:57:24;17.20;;;15.70;;
16177;SDS011;8195;51.220;9.746;2023-05-07T16:07:45;18.63;;;16.93;;
16177;SDS011;8195;51.220;9.746;2023-05-07T16:18:12;18.83;;;17.30;;
16177;SDS011;8195;51.220;9.746;2023-05-07T16:39:37;19.40;;;17.70;;
16177;SDS011;8195;51.220;9.746;2023-05-07T16:50:01;17.67;;;16.27;;
16177;SDS011;8195;51.220;9.746;2023-05-07T17:00:31;18.00;;;16.60;;
16177;SDS011;8195;51.220;9.746;2023-05-07T17:10:55;18.50;;;17.03;;
16177;SDS011;8195;51.220;9.746;2023-05-07T17:21:16;18.03;;;16.57;;
16177;SDS011;8195;51.220;9.746;2023-05-07T17:31:43;17.87;;;16.47;;
16177;SDS011;8195;51.220;9.746;2023-05-07T17:42:05;17.97;;;16.47;;
16177;SDS011;8195;51.220;9.746;2023-05-07T17:52:26;17.53;;;16.13;;
16177;SDS011;8195;51.220;9.746;2023-05-07T18:02:46;17.73;;;16.43;;
16177;SDS011;8195;51.220;9.746;2023-05-07T18:13:10;15.90;;;14.70;;
16177;SDS011;8195;51.220;9.746;2023-05-07T18:23:31;16.27;;;14.97;;
16177;SDS011;8195;51.220;9.746;2023-05-07T18:33:56;17.13;;;15.83;;
16177;SDS011;8195;51.220;9.746;2023-05-07T18:55:03;16.17;;;14.97;;
16177;SDS011;8195;51.220;9.746;2023-05-07T19:05:31;16.03;;;14.57;;
16177;SDS011;8195;51.220;9.746;2023-05-07T19:15:53;14.90;;;13.60;;
16177;SDS011;8195;51.220;9.746;2023-05-07T19:26:14;15.60;;;14.20;;
16177;SDS011;8195;51.220;9.746;2023-05-07T19:36:35;15.63;;;14.23;;
16177;SDS011;8195;51.220;9.746;2023-05-07T19:46:57;16.13;;;14.63;;
16177;SDS011;8195;51.220;9.746;2023-05-07T19:57:24;15.07;;;13.67;;
16177;SDS011;8195;51.220;9.746;2023-05-07T20:07:45;15.47;;;14.03;;
16177;SDS011;8195;51.220;9.746;2023-05-07T20:18:06;14.60;;;13.33;;
16177;SDS011;8195;51.220;9.746;2023-05-07T20:29:05;14.77;;;13.47;;
16177;SDS011;8195;51.220;9.746;2023-05-07T20:39:19;12.57;;;11.37;;
16177;SDS011;8195;51.220;9.746;2023-05-07T20:49:40;12.33;;;11.23;;
16177;SDS011;8195;51.220;9.746;2023-05-07T21:00:01;12.00;;;10.90;;
16177;SDS011;8195;51.220;9.746;2023-05-07T21:10:28;11.80;;;10.70;;
16177;SDS011;8195;51.220;9.746;2023-05-07T21:21:13;10.50;;;9.60;;
16177;SDS011;8195;51.220;9.746;2023-05-07T21:31:41;11.63;;;10.60;;
16177;SDS011;8195;51.220;9.746;2023-05-07T21:42:11;11.93;;;10.73;;
16177;SDS011;8195;51.220;9.746;2023-05-07T21:52:32;11.97;;;10.97;;
16177;SDS011;8195;51.220;9.746;2023-05-07T22:03:16;12.37;;;11.17;;
16177;SDS011;8195;51.220;9.746;2023-05-07T22:13:37;13.20;;;12.00;;
16177;SDS011;8195;51.220;9.746;2023-05-07T22:23:58;14.03;;;12.63;;
16177;SDS011;8195;51.220;9.746;2023-05-07T22:34:19;16.60;;;15.00;;
16177;SDS011;8195;51.220;9.746;2023-05-07T22:44:43;16.80;;;15.10;;
16177;SDS011;8195;51.220;9.746;2023-05-07T22:55:04;14.53;;;13.23;;
16177;SDS011;8195;51.220;9.746;2023-05-07T23:05:34;16.20;;;14.50;;
16177;SDS011;8195;51.220;9.746;2023-05-07T23:15:55;15.47;;;14.07;;
16177;SDS011;8195;51.220;9.746;2023-05-07T23:26:16;17.17;;;15.40;;
16177;SDS011;8195;51.220;9.746;2023-05-07T23:36:40;16.23;;;14.73;;
16177;SDS011;8195;51.220;9.746;2023-05-07T23:47:25;15.67;;;14.17;;
16177;SDS011;8195;51.220;9.746;2023-05-07T23:58:06;17.70;;;16.00;;
